Time;durP1;ratioP1;P1;durP2;ratioP2;P2;SDS_P1;SDS_P2;PMS_P1;PMS_P2;Temp;Humidity;BMP_temperature;BMP_pressure;BME280_temperature;BME280_humidity;BME280_pressure;Samples;Min_cycle;Max_cycle;Signal;HPM_P1;HPM_P2
2023/10/21 00:01:37;;;;;;;1.62;0.20;;;19.20;68.60;;;;;;2513429;54;21492;-69
2023/10/21 00:04:04;;;;;;;0.20;0.10;;;19.20;68.60;;;;;;2513148;55;21396;-70
2023/10/21 00:06:31;;;;;;;0.65;0.20;;;19.20;68.50;;;;;;2281271;55;21053;-67
2023/10/21 00:08:57;;;;;;;1.00;0.28;;;19.20;68.50;;;;;;2280556;55;20949;-67
2023/10/21 00:11:26;;;;;;;0.47;0.20;;;19.10;68.40;;;;;;2281119;55;21804;-70
2023/10/21 00:13:55;;;;;;;0.30;0.10;;;19.20;68.50;;;;;;2513052;55;20954;-69
2023/10/21 00:16:21;;;;;;;0.13;0.10;;;19.20;68.60;;;;;;2281277;56;21408;-66
2023/10/21 00:18:48;;;;;;;0.50;0.20;;;19.20;68.60;;;;;;2280071;55;21756;-67
2023/10/21 00:21:14;;;;;;;0.52;0.13;;;19.10;68.50;;;;;;2512710;55;20950;-69
2023/10/21 00:23:41;;;;;;;0.45;0.20;;;19.20;68.70;;;;;;2280227;56;21022;-70
2023/10/21 00:26:07;;;;;;;1.60;0.20;;;19.20;68.60;;;;;;2283569;55;20953;-68
2023/10/21 00:28:35;;;;;;;0.25;0.10;;;19.10;68.60;;;;;;2504784;54;20957;-69
2023/10/21 00:31:05;;;;;;;1.23;0.20;;;19.20;68.70;;;;;;2513720;55;20982;-70
2023/10/21 00:33:32;;;;;;;0.70;0.20;;;19.10;68.60;;;;;;2281379;55;21521;-67
2023/10/21 00:35:58;;;;;;;0.47;0.10;;;19.10;68.60;;;;;;2280728;55;20958;-69
2023/10/21 00:38:25;;;;;;;0.17;0.10;;;19.10;68.60;;;;;;2513536;55;21013;-69
2023/10/21 00:40:55;;;;;;;0.62;0.20;;;19.10;68.60;;;;;;2280287;56;21797;-68
2023/10/21 00:43:40;;;;;;;0.45;0.10;;;19.10;68.60;;;;;;2513692;55;21026;-71
2023/10/21 00:46:19;;;;;;;0.77;0.28;;;19.20;68.30;;;;;;2280675;56;20946;-69
2023/10/21 00:48:48;;;;;;;0.68;0.15;;;19.10;68.10;;;;;;2278274;55;21041;-69
2023/10/21 00:51:16;;;;;;;0.88;0.30;;;19.10;68.60;;;;;;2280212;55;21086;-69
2023/10/21 00:53:45;;;;;;;0.62;0.28;;;19.10;68.70;;;;;;2512892;55;21540;-69
2023/10/21 00:56:13;;;;;;;1.17;0.20;;;19.10;68.70;;;;;;2279714;55;20964;-68
2023/10/21 00:58:40;;;;;;;0.60;0.20;;;19.10;68.70;;;;;;2279736;55;21073;-68
2023/10/21 01:01:07;;;;;;;0.65;0.28;;;19.10;68.70;;;;;;2276573;55;21482;-69
2023/10/21 01:03:36;;;;;;;1.40;0.20;;;19.10;68.70;;;;;;2512991;55;20974;-67
2023/10/21 01:06:04;;;;;;;0.45;0.10;;;19.10;68.80;;;;;;2253881;55;21029;-68
2023/10/21 01:08:30;;;;;;;0.90;0.20;;;19.10;69.60;;;;;;2513054;55;20954;-68
2023/10/21 01:10:58;;;;;;;1.05;0.20;;;19.10;68.90;;;;;;2511277;55;21037;-67
2023/10/21 01:13:24;;;;;;;0.80;0.30;;;19.10;68.90;;;;;;2273957;54;20946;-68
2023/10/21 01:15:50;;;;;;;1.52;0.20;;;19.10;68.80;;;;;;2274358;54;20971;-69
2023/10/21 01:18:17;;;;;;;0.65;0.30;;;19.10;68.80;;;;;;2281162;56;20965;-68
2023/10/21 01:20:43;;;;;;;1.25;0.30;;;19.10;68.80;;;;;;2512930;55;21017;-67
2023/10/21 01:23:14;;;;;;;0.40;0.20;;;19.10;68.70;;;;;;2512903;55;22089;-68
2023/10/21 01:25:41;;;;;;;0.37;0.20;;;19.10;68.50;;;;;;2512878;55;20977;-68
2023/10/21 01:28:08;;;;;;;0.25;0.15;;;19.10;68.70;;;;;;2279211;55;20930;-69
2023/10/21 01:30:34;;;;;;;2.10;0.35;;;19.10;68.70;;;;;;2280460;56;21425;-72
2023/10/21 01:33:01;;;;;;;1.23;0.35;;;19.10;68.70;;;;;;2512398;55;20958;-70
2023/10/21 01:35:28;;;;;;;0.88;0.28;;;19.10;68.50;;;;;;2277490;54;21031;-70
2023/10/21 01:37:54;;;;;;;0.62;0.25;;;19.00;68.50;;;;;;2509115;55;21007;-69
2023/10/21 01:40:21;;;;;;;1.37;0.20;;;19.00;68.50;;;;;;2513165;55;21740;-67
2023/10/21 01:42:47;;;;;;;1.67;0.20;;;19.00;68.50;;;;;;2512882;55;20982;-68
2023/10/21 01:45:15;;;;;;;1.17;0.37;;;19.00;68.50;;;;;;2512253;54;20946;-68
2023/10/21 01:47:43;;;;;;;2.65;0.20;;;19.00;68.40;;;;;;2280085;56;20962;-69
2023/10/21 01:50:09;;;;;;;0.43;0.20;;;19.00;68.50;;;;;;2280664;56;20938;-68
2023/10/21 01:52:37;;;;;;;1.12;0.20;;;19.00;68.40;;;;;;2513336;55;21021;-67
2023/10/21 01:55:05;;;;;;;0.75;0.20;;;19.00;68.30;;;;;;2511067;55;20989;-67
2023/10/21 01:57:34;;;;;;;0.88;0.30;;;19.00;68.40;;;;;;2513437;55;20997;-68
2023/10/21 02:00:01;;;;;;;0.93;0.20;;;19.00;68.40;;;;;;2278856;56;20974;-68
2023/10/21 02:02:28;;;;;;;0.22;0.17;;;19.00;68.40;;;;;;2512907;55;20965;-68
2023/10/21 02:04:55;;;;;;;1.60;0.37;;;18.90;68.30;;;;;;2279516;56;21081;-67
2023/10/21 02:07:22;;;;;;;0.50;0.20;;;18.90;68.30;;;;;;2505124;54;21220;-72
2023/10/21 02:09:48;;;;;;;0.57;0.20;;;18.90;68.30;;;;;;2278743;55;21013;-69
2023/10/21 02:12:15;;;;;;;0.50;0.20;;;18.90;68.30;;;;;;2279808;56;20950;-70
2023/10/21 02:14:41;;;;;;;0.65;0.20;;;18.90;68.40;;;;;;2512838;55;21425;-68
2023/10/21 02:17:08;;;;;;;0.35;0.13;;;18.90;68.40;;;;;;2512584;55;21375;-66
2023/10/21 02:19:35;;;;;;;0.65;0.28;;;18.80;68.30;;;;;;2280736;55;21514;-67
2023/10/21 02:22:03;;;;;;;1.20;0.13;;;18.80;68.20;;;;;;2278863;56;20938;-67
2023/10/21 02:24:35;;;;;;;0.28;0.10;;;18.80;68.30;;;;;;2280186;55;21081;-69
2023/10/21 02:27:02;;;;;;;0.65;0.15;;;18.80;68.10;;;;;;2512221;55;21029;-68
2023/10/21 02:29:29;;;;;;;1.02;0.20;;;18.80;68.30;;;;;;2280381;55;21053;-68
2023/10/21 02:31:55;;;;;;;0.20;0.10;;;18.80;68.30;;;;;;2511442;55;20978;-68
2023/10/21 02:34:23;;;;;;;0.45;0.10;;;18.70;68.30;;;;;;2512571;55;21443;-67
2023/10/21 02:36:49;;;;;;;0.95;0.30;;;18.70;68.40;;;;;;2282144;55;21015;-69
2023/10/21 02:39:17;;;;;;;0.62;0.20;;;18.70;68.40;;;;;;2296738;54;20948;-69
2023/10/21 02:41:43;;;;;;;0.98;0.20;;;18.70;68.50;;;;;;2511812;55;20979;-67
2023/10/21 02:44:10;;;;;;;1.17;0.40;;;18.70;68.50;;;;;;2273398;54;20970;-67
2023/10/21 02:46:40;;;;;;;1.42;0.35;;;18.70;68.60;;;;;;2279953;55;21383;-68
2023/10/21 02:49:07;;;;;;;1.58;0.30;;;18.60;68.50;;;;;;2512819;55;21094;-68
2023/10/21 02:51:33;;;;;;;0.60;0.22;;;18.70;68.80;;;;;;2283300;54;21142;-66
2023/10/21 02:53:59;;;;;;;0.55;0.20;;;18.60;68.70;;;;;;2276420;54;20989;-68
2023/10/21 02:56:26;;;;;;;0.28;0.13;;;18.60;68.70;;;;;;2282287;55;20989;-70
2023/10/21 02:58:52;;;;;;;0.75;0.30;;;18.60;68.70;;;;;;2279328;56;21015;-67
2023/10/21 03:01:20;;;;;;;2.30;0.32;;;18.70;68.90;;;;;;2283016;55;21836;-67
2023/10/21 03:03:47;;;;;;;1.55;0.20;;;18.60;68.80;;;;;;2278358;55;20970;-68
2023/10/21 03:06:14;;;;;;;0.30;0.20;;;18.70;68.90;;;;;;2285060;55;20974;-68
2023/10/21 03:08:41;;;;;;;0.93;0.30;;;18.70;69.00;;;;;;2277641;54;21071;-67
2023/10/21 03:11:07;;;;;;;1.60;0.25;;;18.70;69.00;;;;;;2509974;55;21018;-68
2023/10/21 03:13:35;;;;;;;1.05;0.20;;;18.70;69.10;;;;;;2281066;55;21058;-68
2023/10/21 03:16:09;;;;;;;1.65;0.30;;;18.70;69.10;;;;;;2513240;55;21534;-68
2023/10/21 03:18:36;;;;;;;0.40;0.20;;;18.70;68.80;;;;;;2281485;56;21108;-68
2023/10/21 03:21:03;;;;;;;0.93;0.30;;;18.70;69.10;;;;;;2281890;55;21071;-70
2023/10/21 03:23:30;;;;;;;0.40;0.20;;;18.70;69.10;;;;;;2273618;54;21297;-69
2023/10/21 03:25:58;;;;;;;0.62;0.30;;;18.70;69.10;;;;;;2508195;54;20992;-67
2023/10/21 03:28:26;;;;;;;0.50;0.25;;;18.70;69.10;;;;;;2275931;54;20966;-67
2023/10/21 03:30:58;;;;;;;0.50;0.20;;;18.70;69.10;;;;;;2280700;56;21033;-68
2023/10/21 03:33:26;;;;;;;0.65;0.20;;;18.70;69.00;;;;;;2514471;55;21074;-68
2023/10/21 03:35:53;;;;;;;2.00;0.28;;;18.70;69.20;;;;;;2280041;55;20958;-70
2023/10/21 03:38:21;;;;;;;0.47;0.20;;;18.70;69.20;;;;;;2514400;55;20981;-69
2023/10/21 03:41:03;;;;;;;0.85;0.20;;;18.70;69.20;;;;;;2514128;55;20982;-67
2023/10/21 03:43:30;;;;;;;0.85;0.22;;;18.80;68.60;;;;;;2513665;55;21537;-67
2023/10/21 03:45:58;;;;;;;0.82;0.30;;;18.70;69.20;;;;;;2279186;56;21324;-68
2023/10/21 03:48:24;;;;;;;0.50;0.30;;;18.70;69.30;;;;;;2280993;56;21010;-68
2023/10/21 03:50:50;;;;;;;1.23;0.30;;;18.80;69.40;;;;;;2281108;56;20958;-67
2023/10/21 03:53:17;;;;;;;0.40;0.28;;;18.70;69.30;;;;;;2283813;55;21475;-68
2023/10/21 03:55:44;;;;;;;0.80;0.30;;;18.70;69.40;;;;;;2503946;55;21049;-69
2023/10/21 03:58:11;;;;;;;2.95;0.45;;;18.80;69.50;;;;;;2513396;55;20978;-69
2023/10/21 04:00:38;;;;;;;0.75;0.28;;;18.80;69.40;;;;;;2254707;56;21030;-68
2023/10/21 04:03:04;;;;;;;2.30;0.28;;;18.80;69.40;;;;;;2512895;55;20970;-69
2023/10/21 04:05:31;;;;;;;0.45;0.20;;;18.80;69.40;;;;;;2514045;55;21027;-67
2023/10/21 04:07:59;;;;;;;1.35;0.30;;;18.80;69.40;;;;;;2279766;55;20978;-67
2023/10/21 04:10:25;;;;;;;3.08;0.30;;;18.80;69.40;;;;;;2281468;55;20977;-68
2023/10/21 04:12:55;;;;;;;0.88;0.20;;;18.80;69.30;;;;;;2513058;55;21729;-68
2023/10/21 04:15:21;;;;;;;0.68;0.30;;;18.80;69.20;;;;;;2281516;55;21026;-71
2023/10/21 04:17:48;;;;;;;1.02;0.30;;;18.80;69.20;;;;;;2513993;55;20990;-71
2023/10/21 04:20:17;;;;;;;0.98;0.25;;;18.80;69.20;;;;;;2279991;55;20934;-67
2023/10/21 04:22:44;;;;;;;1.85;0.43;;;18.70;69.10;;;;;;2280744;56;21637;-69
2023/10/21 04:25:11;;;;;;;0.88;0.30;;;18.70;69.10;;;;;;2280947;56;20982;-68
2023/10/21 04:27:38;;;;;;;1.80;0.20;;;18.70;69.20;;;;;;2514074;55;20942;-71
2023/10/21 04:30:05;;;;;;;1.12;0.30;;;18.80;69.30;;;;;;2281036;55;20995;-67
2023/10/21 04:32:32;;;;;;;0.75;0.20;;;18.70;69.20;;;;;;2276937;55;20978;-67
2023/10/21 04:34:58;;;;;;;1.02;0.20;;;18.70;69.20;;;;;;2280119;55;21063;-70
2023/10/21 04:37:25;;;;;;;0.32;0.20;;;18.70;69.30;;;;;;2281250;56;21447;-70
2023/10/21 04:39:52;;;;;;;1.50;0.20;;;18.70;69.30;;;;;;2279761;55;21102;-68
2023/10/21 04:42:18;;;;;;;1.45;0.20;;;18.60;69.10;;;;;;2280360;55;20978;-68
2023/10/21 04:44:45;;;;;;;0.62;0.17;;;18.70;69.30;;;;;;2280504;56;21021;-68
2023/10/21 04:47:11;;;;;;;1.02;0.20;;;18.70;69.30;;;;;;2512467;55;21005;-68
2023/10/21 04:49:38;;;;;;;0.60;0.30;;;18.70;69.30;;;;;;2281664;55;20962;-67
2023/10/21 04:52:08;;;;;;;0.98;0.20;;;18.70;69.20;;;;;;2511976;55;22511;-68
2023/10/21 04:54:34;;;;;;;0.50;0.20;;;18.70;69.10;;;;;;2513726;54;20992;-68
2023/10/21 04:57:03;;;;;;;0.40;0.20;;;18.70;69.20;;;;;;2279035;55;21026;-68
2023/10/21 04:59:30;;;;;;;1.87;0.20;;;18.70;69.20;;;;;;2281676;56;21014;-67
2023/10/21 05:01:56;;;;;;;1.73;0.30;;;18.70;69.20;;;;;;2280101;55;20993;-68
2023/10/21 05:04:23;;;;;;;0.82;0.20;;;18.70;69.20;;;;;;2530326;54;21024;-69
2023/10/21 05:06:49;;;;;;;0.45;0.10;;;18.70;69.10;;;;;;2279981;55;21030;-67
2023/10/21 05:09:16;;;;;;;0.40;0.20;;;18.70;69.00;;;;;;2514549;54;20978;-69
2023/10/21 05:11:42;;;;;;;0.93;0.15;;;18.60;68.90;;;;;;2500369;54;21037;-67
2023/10/21 05:14:08;;;;;;;0.10;0.10;;;18.60;68.90;;;;;;2280535;55;20941;-68
2023/10/21 05:16:35;;;;;;;1.70;0.30;;;18.60;68.90;;;;;;2280808;56;21305;-67
2023/10/21 05:19:01;;;;;;;1.15;0.20;;;18.60;68.90;;;;;;2280196;56;20958;-67
2023/10/21 05:21:27;;;;;;;0.47;0.15;;;18.60;68.90;;;;;;2514312;54;21029;-70
2023/10/21 05:23:54;;;;;;;0.50;0.20;;;18.60;68.90;;;;;;2280001;55;21817;-67
2023/10/21 05:26:20;;;;;;;0.43;0.20;;;18.60;68.90;;;;;;2280683;55;20935;-67
2023/10/21 05:28:48;;;;;;;0.98;0.28;;;18.50;68.80;;;;;;2513658;55;21002;-67
2023/10/21 05:31:14;;;;;;;0.40;0.15;;;18.50;68.90;;;;;;2281333;56;20994;-69
2023/10/21 05:33:41;;;;;;;0.35;0.10;;;18.50;68.90;;;;;;2266408;55;21114;-68
2023/10/21 05:36:07;;;;;;;1.85;0.25;;;18.50;68.90;;;;;;2270724;55;20974;-70
2023/10/21 05:38:33;;;;;;;0.65;0.20;;;18.50;68.90;;;;;;2281959;55;21550;-68
2023/10/21 05:41:00;;;;;;;1.40;0.20;;;18.50;68.90;;;;;;2280824;55;21423;-66
2023/10/21 05:43:26;;;;;;;0.37;0.10;;;18.50;68.90;;;;;;2281583;55;21029;-67
2023/10/21 05:45:53;;;;;;;1.85;0.30;;;18.50;68.90;;;;;;2513528;55;21028;-68
2023/10/21 05:48:22;;;;;;;0.40;0.20;;;18.40;68.70;;;;;;2513359;55;21850;-67
2023/10/21 05:50:49;;;;;;;0.70;0.30;;;18.40;68.70;;;;;;2281249;56;21791;-68
2023/10/21 05:53:16;;;;;;;1.95;0.28;;;18.40;68.60;;;;;;2281364;55;21034;-69
2023/10/21 05:55:43;;;;;;;1.00;0.22;;;18.40;68.60;;;;;;2509055;55;20927;-67
2023/10/21 05:58:12;;;;;;;1.40;0.32;;;18.40;68.50;;;;;;2513668;55;20966;-67
2023/10/21 06:00:39;;;;;;;1.25;0.20;;;18.40;68.40;;;;;;2277303;55;21455;-69
2023/10/21 06:03:06;;;;;;;0.45;0.10;;;18.40;68.50;;;;;;2280239;56;21085;-68
2023/10/21 06:05:35;;;;;;;0.75;0.17;;;18.40;68.40;;;;;;2514486;55;21090;-67
2023/10/21 06:08:04;;;;;;;0.32;0.03;;;18.40;68.20;;;;;;2280722;56;21053;-66
2023/10/21 06:10:30;;;;;;;0.68;0.20;;;18.40;68.20;;;;;;2281678;55;20946;-67
2023/10/21 06:12:57;;;;;;;0.50;0.30;;;18.30;68.20;;;;;;2513734;55;20950;-69
2023/10/21 06:15:23;;;;;;;0.85;0.10;;;18.30;68.20;;;;;;2280399;55;21014;-67
2023/10/21 06:17:51;;;;;;;0.43;0.20;;;18.30;68.10;;;;;;2281269;55;21006;-68
2023/10/21 06:20:18;;;;;;;0.88;0.15;;;18.30;68.20;;;;;;2280732;55;20967;-70
2023/10/21 06:22:45;;;;;;;0.52;0.20;;;18.20;68.00;;;;;;2278763;55;21007;-67
2023/10/21 06:25:14;;;;;;;0.50;0.20;;;18.20;68.00;;;;;;2510227;55;20954;-67
2023/10/21 06:27:40;;;;;;;2.15;0.30;;;18.20;68.00;;;;;;2282453;55;21022;-67
2023/10/21 06:30:07;;;;;;;1.65;0.30;;;18.20;68.10;;;;;;2512775;55;20982;-67
2023/10/21 06:32:34;;;;;;;0.90;0.20;;;18.20;68.00;;;;;;2514128;55;21554;-68
2023/10/21 06:35:00;;;;;;;1.52;0.40;;;18.10;67.90;;;;;;2513505;55;21902;-67
2023/10/21 06:37:26;;;;;;;0.20;0.20;;;18.10;67.90;;;;;;2513098;55;20958;-71
2023/10/21 06:39:54;;;;;;;1.25;0.20;;;18.10;68.00;;;;;;2514133;55;21022;-67
2023/10/21 06:42:21;;;;;;;0.50;0.20;;;18.10;68.00;;;;;;2281793;55;21356;-70
2023/10/21 06:44:47;;;;;;;0.28;0.10;;;18.00;67.90;;;;;;2513883;55;20969;-70
2023/10/21 06:47:14;;;;;;;1.85;0.30;;;18.00;67.90;;;;;;2282515;55;21002;-69
2023/10/21 06:49:41;;;;;;;0.75;0.30;;;18.00;67.80;;;;;;2274745;55;21546;-67
2023/10/21 06:52:08;;;;;;;1.75;0.20;;;18.00;67.80;;;;;;2513317;55;20962;-68
2023/10/21 06:54:34;;;;;;;1.60;0.30;;;18.00;67.90;;;;;;2280763;56;20974;-70
2023/10/21 06:57:01;;;;;;;0.95;0.30;;;17.90;67.80;;;;;;2513648;54;20974;-70
2023/10/21 06:59:27;;;;;;;1.58;0.30;;;18.00;67.80;;;;;;2280830;55;20982;-68
2023/10/21 07:01:54;;;;;;;1.02;0.22;;;17.90;67.70;;;;;;2280688;56;21033;-68
2023/10/21 07:04:21;;;;;;;0.95;0.20;;;17.90;67.80;;;;;;2280755;55;21006;-71
2023/10/21 07:06:50;;;;;;;1.10;0.20;;;17.90;67.80;;;;;;2281490;56;21951;-68
2023/10/21 07:09:16;;;;;;;0.82;0.20;;;17.80;67.80;;;;;;2280695;56;20910;-71
2023/10/21 07:11:43;;;;;;;0.90;0.22;;;17.90;67.90;;;;;;2280928;56;21571;-68
2023/10/21 07:14:12;;;;;;;0.60;0.20;;;17.90;68.00;;;;;;2512768;55;20974;-69
2023/10/21 07:16:40;;;;;;;2.53;0.32;;;17.90;68.10;;;;;;2514009;55;20998;-67
2023/10/21 07:19:06;;;;;;;5.62;2.05;;;17.80;68.00;;;;;;2279692;55;20974;-67
2023/10/21 07:21:33;;;;;;;3.85;1.73;;;17.80;68.10;;;;;;2282111;55;21450;-68
2023/10/21 07:24:00;;;;;;;6.82;4.10;;;17.80;68.10;;;;;;2280303;55;21841;-67
2023/10/21 07:26:29;;;;;;;4.60;2.35;;;17.80;68.20;;;;;;2509207;54;21459;-67
2023/10/21 07:28:55;;;;;;;4.20;2.83;;;17.80;68.20;;;;;;2513413;55;20994;-68
2023/10/21 07:31:22;;;;;;;3.83;1.98;;;17.80;68.30;;;;;;2281754;55;21011;-67
2023/10/21 07:33:51;;;;;;;3.35;1.60;;;17.80;68.40;;;;;;2280934;55;21005;-69
2023/10/21 07:36:18;;;;;;;3.35;1.20;;;17.80;68.40;;;;;;2280003;55;21010;-70
2023/10/21 07:38:44;;;;;;;1.75;0.70;;;17.80;68.40;;;;;;2280664;55;20954;-65
2023/10/21 07:41:14;;;;;;;1.70;0.60;;;17.80;68.40;;;;;;2280650;56;21001;-67
2023/10/21 07:43:40;;;;;;;1.30;0.50;;;17.80;68.30;;;;;;2281061;56;21018;-67
2023/10/21 07:46:06;;;;;;;2.20;0.62;;;17.90;68.60;;;;;;2279758;56;21009;-66
2023/10/21 07:48:34;;;;;;;4.05;2.28;;;17.80;68.60;;;;;;2513663;55;21455;-67
2023/10/21 07:51:00;;;;;;;7.90;3.67;;;17.90;68.60;;;;;;2280360;55;21001;-67
2023/10/21 07:53:27;;;;;;;4.03;2.30;;;17.90;68.70;;;;;;2513705;54;20989;-67
2023/10/21 07:55:54;;;;;;;5.07;2.05;;;17.90;68.60;;;;;;2280782;55;21050;-67
2023/10/21 07:58:20;;;;;;;3.45;1.25;;;17.90;68.60;;;;;;2280419;56;20966;-67
2023/10/21 08:00:47;;;;;;;2.83;1.10;;;18.00;68.70;;;;;;2281060;55;20966;-66
2023/10/21 08:03:14;;;;;;;2.45;0.62;;;18.00;68.70;;;;;;2513681;55;20990;-69
2023/10/21 08:05:41;;;;;;;1.05;0.40;;;18.00;68.70;;;;;;2281060;56;21018;-68
2023/10/21 08:08:08;;;;;;;0.40;0.20;;;18.00;68.70;;;;;;2279656;56;21120;-69
2023/10/21 08:10:39;;;;;;;1.60;0.30;;;18.00;68.60;;;;;;2280810;55;21021;-67
2023/10/21 08:13:05;;;;;;;2.80;0.40;;;18.10;68.30;;;;;;2280013;55;21888;-69
2023/10/21 08:15:32;;;;;;;1.87;0.30;;;18.10;68.40;;;;;;2513422;55;21013;-67
2023/10/21 08:17:59;;;;;;;1.90;0.43;;;18.10;68.40;;;;;;2279665;55;20938;-67
2023/10/21 08:20:26;;;;;;;2.10;0.43;;;18.10;68.50;;;;;;2513135;55;20962;-68
2023/10/21 08:22:52;;;;;;;3.00;0.55;;;18.20;68.60;;;;;;2276327;55;21006;-67
2023/10/21 08:25:21;;;;;;;1.70;0.40;;;18.20;68.60;;;;;;2276589;54;21003;-66
2023/10/21 08:27:48;;;;;;;2.22;0.60;;;18.20;68.50;;;;;;2280857;55;21049;-68
2023/10/21 08:30:18;;;;;;;1.30;0.43;;;18.20;68.40;;;;;;2279511;55;20970;-67
2023/10/21 08:32:44;;;;;;;1.37;0.40;;;18.20;68.40;;;;;;2277355;54;20963;-70
2023/10/21 08:35:13;;;;;;;1.33;0.50;;;18.30;68.50;;;;;;2278884;54;21045;-68
2023/10/21 08:37:39;;;;;;;2.17;0.47;;;18.30;68.40;;;;;;2281126;55;22151;-68
2023/10/21 08:40:10;;;;;;;1.05;0.35;;;18.30;68.30;;;;;;2279491;55;20974;-69
2023/10/21 08:42:36;;;;;;;2.47;0.60;;;18.30;68.10;;;;;;2280407;55;21021;-67
2023/10/21 08:45:09;;;;;;;0.62;0.20;;;18.30;68.10;;;;;;2513448;55;20957;-68
2023/10/21 08:47:35;;;;;;;0.93;0.28;;;18.40;68.10;;;;;;2513896;55;21751;-70
2023/10/21 08:50:03;;;;;;;2.10;0.47;;;18.40;68.10;;;;;;2280189;55;21029;-69
2023/10/21 08:52:30;;;;;;;1.42;0.28;;;18.40;68.00;;;;;;2280260;56;21006;-68
2023/10/21 08:54:57;;;;;;;1.55;0.50;;;18.40;67.90;;;;;;2279921;56;21794;-68
2023/10/21 08:57:25;;;;;;;1.65;0.40;;;18.40;67.80;;;;;;2513364;55;21959;-68
2023/10/21 08:59:51;;;;;;;2.45;0.50;;;18.40;67.70;;;;;;2513840;55;21463;-67
2023/10/21 09:02:18;;;;;;;2.55;0.55;;;18.50;67.70;;;;;;2281364;56;21054;-68
2023/10/21 09:04:44;;;;;;;2.10;0.37;;;18.50;67.70;;;;;;2280502;55;21102;-68
2023/10/21 09:07:13;;;;;;;3.90;0.50;;;18.50;67.70;;;;;;2513341;55;20982;-69
2023/10/21 09:09:40;;;;;;;1.67;0.30;;;18.50;67.70;;;;;;2513987;55;21026;-67
2023/10/21 09:12:14;;;;;;;2.10;0.45;;;18.50;67.70;;;;;;2280405;56;20958;-69
2023/10/21 09:14:56;;;;;;;3.05;0.40;;;18.50;67.80;;;;;;2280794;55;21018;-69
2023/10/21 09:17:51;;;;;;;2.17;0.60;;;18.60;67.40;;;;;;2280834;56;20974;-68
2023/10/21 09:20:18;;;;;;;1.70;0.47;;;18.60;67.10;;;;;;2280129;56;21034;-69
2023/10/21 09:22:52;;;;;;;2.00;0.37;;;18.60;68.20;;;;;;2503868;55;21019;-68
2023/10/21 09:25:20;;;;;;;1.05;0.30;;;18.70;68.30;;;;;;2505528;54;21007;-71
2023/10/21 09:27:58;;;;;;;1.45;0.32;;;18.70;68.40;;;;;;2280803;55;20950;-67
2023/10/21 09:30:30;;;;;;;1.70;0.22;;;18.70;68.40;;;;;;2280785;56;20978;-67
2023/10/21 09:33:07;;;;;;;2.08;0.40;;;18.80;68.10;;;;;;2280523;56;21039;-68
2023/10/21 09:35:36;;;;;;;2.30;0.40;;;18.80;67.70;;;;;;2276695;55;20942;-68
2023/10/21 09:38:18;;;;;;;1.92;0.30;;;18.80;68.10;;;;;;2280623;55;21825;-68
2023/10/21 09:40:46;;;;;;;0.77;0.20;;;18.90;67.20;;;;;;2504111;55;20971;-71
2023/10/21 09:43:15;;;;;;;0.95;0.30;;;18.90;68.00;;;;;;2280167;55;20993;-69
2023/10/21 09:45:43;;;;;;;1.87;0.50;;;18.90;67.80;;;;;;2280979;55;21034;-68
2023/10/21 09:48:11;;;;;;;1.23;0.40;;;18.90;67.50;;;;;;2280457;56;21054;-68
2023/10/21 09:50:38;;;;;;;0.60;0.20;;;18.90;67.40;;;;;;2512941;55;20942;-67
2023/10/21 09:53:15;;;;;;;1.55;0.50;;;18.90;67.60;;;;;;2513632;55;21279;-68
2023/10/21 09:55:44;;;;;;;1.55;0.40;;;19.00;67.30;;;;;;2281268;56;20998;-69
2023/10/21 09:58:14;;;;;;;1.52;0.20;;;19.00;67.50;;;;;;2280832;55;21183;-68
2023/10/21 10:00:43;;;;;;;1.17;0.30;;;19.00;67.50;;;;;;2512927;55;21065;-71
2023/10/21 10:03:12;;;;;;;2.45;0.30;;;19.00;67.60;;;;;;2513454;55;21034;-68
2023/10/21 10:05:41;;;;;;;1.67;0.40;;;19.00;67.50;;;;;;2279279;55;20946;-68
2023/10/21 10:08:08;;;;;;;1.85;0.40;;;19.10;67.60;;;;;;2280720;55;20982;-68
2023/10/21 10:10:35;;;;;;;0.55;0.20;;;19.10;67.70;;;;;;2280637;55;20995;-68
2023/10/21 10:13:11;;;;;;;0.75;0.30;;;19.10;67.70;;;;;;2280972;56;21058;-70
2023/10/21 10:15:38;;;;;;;0.73;0.30;;;19.20;67.30;;;;;;2280827;55;21087;-69
2023/10/21 10:18:24;;;;;;;0.65;0.25;;;19.20;67.70;;;;;;2279171;55;21053;-69
2023/10/21 10:20:51;;;;;;;1.08;0.30;;;19.30;66.50;;;;;;2277509;55;21095;-68
2023/10/21 10:23:24;;;;;;;1.37;0.30;;;19.30;67.50;;;;;;2279910;55;21065;-67
2023/10/21 10:25:51;;;;;;;0.45;0.28;;;19.30;66.70;;;;;;2512882;55;20990;-68
2023/10/21 10:28:19;;;;;;;1.62;0.35;;;19.30;67.00;;;;;;2296360;54;21032;-71
2023/10/21 10:30:49;;;;;;;1.20;0.30;;;19.40;66.80;;;;;;2512783;55;20973;-70
2023/10/21 10:33:17;;;;;;;1.92;0.40;;;19.40;67.40;;;;;;2281346;55;21772;-70
2023/10/21 10:35:53;;;;;;;1.60;0.40;;;19.40;66.70;;;;;;2276940;55;21014;-68
2023/10/21 10:38:31;;;;;;;1.00;0.25;;;19.40;66.60;;;;;;2280176;55;20969;-68
2023/10/21 10:41:11;;;;;;;1.67;0.52;;;19.40;65.60;;;;;;2280229;56;21419;-66
2023/10/21 10:43:45;;;;;;;0.60;0.20;;;19.40;65.40;;;;;;2278465;55;21808;-68
2023/10/21 10:46:15;;;;;;;1.25;0.28;;;19.40;66.00;;;;;;2507475;55;20989;-68
2023/10/21 10:48:43;;;;;;;1.60;0.30;;;19.40;66.00;;;;;;2277061;55;20942;-68
2023/10/21 10:51:15;;;;;;;1.33;0.40;;;19.40;66.40;;;;;;2280491;55;20962;-72
2023/10/21 10:53:56;;;;;;;0.70;0.30;;;19.40;66.50;;;;;;2500457;55;21043;-68
2023/10/21 10:56:25;;;;;;;2.50;0.50;;;19.40;65.60;;;;;;2280072;55;20981;-69
2023/10/21 10:58:52;;;;;;;2.60;0.57;;;19.40;66.40;;;;;;2513458;55;20962;-69
2023/10/21 11:01:25;;;;;;;5.25;0.70;;;19.40;66.20;;;;;;2277305;55;20979;-69
2023/10/21 11:04:01;;;;;;;1.40;0.40;;;19.50;66.10;;;;;;2505173;55;21468;-68
2023/10/21 11:06:36;;;;;;;1.73;0.40;;;19.50;66.00;;;;;;2279823;55;21088;-68
2023/10/21 11:09:38;;;;;;;1.50;0.40;;;19.50;66.00;;;;;;2280304;55;20970;-68
2023/10/21 11:12:05;;;;;;;1.77;0.30;;;19.50;66.50;;;;;;2280152;56;21805;-68
2023/10/21 11:14:35;;;;;;;1.92;0.40;;;19.50;66.70;;;;;;2513532;55;20974;-70
2023/10/21 11:17:02;;;;;;;0.80;0.20;;;19.60;66.80;;;;;;2513277;55;21884;-69
2023/10/21 11:19:31;;;;;;;1.05;0.35;;;19.60;66.50;;;;;;2280400;56;20941;-71
2023/10/21 11:21:58;;;;;;;1.30;0.30;;;19.60;66.40;;;;;;2512540;55;20977;-69
2023/10/21 11:24:26;;;;;;;2.65;0.40;;;19.70;66.50;;;;;;2279777;56;21447;-68
2023/10/21 11:26:52;;;;;;;1.15;0.50;;;19.70;66.40;;;;;;2279897;55;21906;-69
2023/10/21 11:29:19;;;;;;;3.15;0.90;;;19.70;66.30;;;;;;2280784;55;20953;-70
2023/10/21 11:31:46;;;;;;;1.15;0.40;;;19.70;66.40;;;;;;2279777;56;20985;-68
2023/10/21 11:34:13;;;;;;;1.20;0.40;;;19.80;66.50;;;;;;2512825;55;20938;-69
2023/10/21 11:36:49;;;;;;;1.73;0.40;;;19.80;66.40;;;;;;2512858;55;21017;-69
2023/10/21 11:39:19;;;;;;;4.40;0.50;;;19.80;65.70;;;;;;2280938;56;20990;-70
2023/10/21 11:41:46;;;;;;;1.48;0.40;;;19.90;65.90;;;;;;2515730;54;20968;-69
2023/10/21 11:44:13;;;;;;;7.87;1.85;;;19.90;66.10;;;;;;2513175;55;20938;-70
2023/10/21 11:46:41;;;;;;;1.02;0.30;;;19.90;66.00;;;;;;2279588;55;21113;-71
2023/10/21 11:49:18;;;;;;;2.42;0.50;;;19.90;65.80;;;;;;2511073;55;21094;-69
2023/10/21 11:51:49;;;;;;;2.50;0.70;;;19.90;65.50;;;;;;2274642;55;21117;-68
2023/10/21 11:54:32;;;;;;;0.95;0.37;;;20.00;65.80;;;;;;2513725;55;20977;-69
2023/10/21 12:11:15;;;;;;;0.70;0.30;;;20.10;65.80;;;;;;2513457;55;21161;-68
2023/10/21 12:14:25;;;;;;;2.20;0.45;;;20.10;65.70;;;;;;2513317;55;20982;-70
2023/10/21 12:36:33;;;;;;;1.85;0.40;;;20.30;65.90;;;;;;2513900;55;21022;-68
2023/10/21 12:39:20;;;;;;;1.75;0.40;;;20.30;65.90;;;;;;2280185;55;21844;-69
2023/10/21 12:41:52;;;;;;;1.60;0.40;;;20.30;65.70;;;;;;2513015;55;21009;-69
2023/10/21 12:44:23;;;;;;;;;;;20.30;65.60;;;;;;2284166;56;20969;-67
2023/10/21 12:46:57;;;;;;;2.08;0.30;;;20.40;64.00;;;;;;2279825;55;20120;-69
2023/10/21 12:49:28;;;;;;;0.80;0.30;;;20.40;65.70;;;;;;2281047;56;21095;-71
2023/10/21 12:51:55;;;;;;;1.05;0.35;;;20.50;65.80;;;;;;2512888;55;20958;-68
2023/10/21 12:54:21;;;;;;;6.85;0.57;;;20.50;65.80;;;;;;2513658;55;20946;-70
2023/10/21 12:56:48;;;;;;;2.28;0.40;;;20.50;65.70;;;;;;2280212;56;20965;-68
2023/10/21 12:59:15;;;;;;;3.42;0.70;;;20.60;65.70;;;;;;2281254;56;20962;-68
2023/10/21 13:01:41;;;;;;;2.65;0.55;;;20.60;65.60;;;;;;2281110;55;21030;-66
2023/10/21 13:04:09;;;;;;;1.65;0.50;;;20.60;66.10;;;;;;2280488;55;21837;-69
2023/10/21 13:06:35;;;;;;;0.80;0.30;;;20.70;65.20;;;;;;2282619;55;21037;-66
2023/10/21 13:09:19;;;;;;;1.60;0.40;;;20.70;65.10;;;;;;2262196;54;21486;-66
2023/10/21 13:11:48;;;;;;;1.45;0.32;;;20.70;65.00;;;;;;2280197;55;21038;-65
2023/10/21 13:14:15;;;;;;;2.75;0.40;;;20.70;65.00;;;;;;2280881;56;20961;-67
2023/10/21 13:16:45;;;;;;;3.00;0.47;;;20.80;64.90;;;;;;2283807;55;21018;-67
2023/10/21 13:19:12;;;;;;;2.15;0.55;;;20.80;64.90;;;;;;2513415;55;20981;-68
2023/10/21 13:21:38;;;;;;;1.52;0.45;;;20.80;64.70;;;;;;2513167;55;21896;-69
2023/10/21 13:24:06;;;;;;;1.92;0.40;;;20.90;64.80;;;;;;2280834;56;21005;-66
2023/10/21 13:26:32;;;;;;;2.17;0.47;;;20.90;64.90;;;;;;2272993;54;20969;-65
2023/10/21 13:29:01;;;;;;;1.67;0.50;;;20.90;65.00;;;;;;2279399;56;20963;-68